To NAV CANADA Home Page Login to a new session Search on AWWS site Feedback and Comments Disclaimer Vers la page française équivalente Tips FAQ What's new on the site To the Forecasts and Observations / NOTAM section To "File a Flight Plan" website Publications and other links Update of the User's profile FIC Telephone Numbers My Weather Data Folder Route Weather Data Regional Weather Data Local Weather Data To the Forecasts and Observations / NOTAM section
Request Generated 04/23/2014 at 22:04:17 UTC . Weather information available at that time is displayed.

METAR/TAF

ARVIAT/NU    

METAR CYEK 232200Z 34014KT 15SM SKC M10/M13 A3041 RMK TR SF LAST
STAFFED OB/NEXT 241200 UTC SLP297=
METAR CYEK 232100Z 35015KT 15SM SKC M10/M12 A3039 RMK TR SF SLP293=
METAR CYEK 232000Z 35014KT 15SM SKC M09/M12 A3039 RMK TR SF SLP291=

TAF CYEK 231738Z 2318/2406 35015KT P6SM SCT015 TEMPO 2318/2321 4SM
-SHSN DRSN BKN015
BECMG 2319/2321 35010KT
FM232100 34010KT P6SM FEW015 TEMPO 2321/2406 BKN015
RMK NXT FCST BY 240000Z=
Your time UTC time
Weather data provided by Environment Canada and NAV CANADA